sensor_id;sensor_type;location;lat;lon;timestamp;temperature;humidity
34099;DHT22;20374;49.474;10.944;2023-01-19T00:00:08;-2.20;99.90
34099;DHT22;20374;49.474;10.944;2023-01-19T00:02:36;-2.20;99.90
34099;DHT22;20374;49.474;10.944;2023-01-19T00:05:03;-2.20;99.90
34099;DHT22;20374;49.474;10.944;2023-01-19T00:07:30;-2.30;99.90
34099;DHT22;20374;49.474;10.944;2023-01-19T00:09:56;-2.30;99.90
34099;DHT22;20374;49.474;10.944;2023-01-19T00:12:23;-2.40;99.90
34099;DHT22;20374;49.474;10.944;2023-01-19T00:14:49;-2.40;99.90
34099;DHT22;20374;49.474;10.944;2023-01-19T00:17:15;-2.40;99.90
34099;DHT22;20374;49.474;10.944;2023-01-19T00:19:41;-2.40;99.90
34099;DHT22;20374;49.474;10.944;2023-01-19T00:22:07;-2.30;99.90
34099;DHT22;20374;49.474;10.944;2023-01-19T00:24:33;-2.40;99.90
34099;DHT22;20374;49.474;10.944;2023-01-19T00:26:59;-2.40;99.90
34099;DHT22;20374;49.474;10.944;2023-01-19T00:29:26;-2.40;99.90
34099;DHT22;20374;49.474;10.944;2023-01-19T00:31:55;-2.40;99.90
34099;DHT22;20374;49.474;10.944;2023-01-19T00:34:21;-2.50;99.90
34099;DHT22;20374;49.474;10.944;2023-01-19T00:36:47;-2.70;99.90
34099;DHT22;20374;49.474;10.944;2023-01-19T00:39:13;-2.70;99.90
34099;DHT22;20374;49.474;10.944;2023-01-19T00:41:39;-2.80;99.90
34099;DHT22;20374;49.474;10.944;2023-01-19T00:44:43;-2.90;99.90
34099;DHT22;20374;49.474;10.944;2023-01-19T00:47:09;-2.90;99.90
34099;DHT22;20374;49.474;10.944;2023-01-19T00:49:35;-2.80;99.90
34099;DHT22;20374;49.474;10.944;2023-01-19T00:52:01;-2.70;99.90
34099;DHT22;20374;49.474;10.944;2023-01-19T00:54:30;-2.70;99.90
34099;DHT22;20374;49.474;10.944;2023-01-19T00:56:55;-2.70;99.90
34099;DHT22;20374;49.474;10.944;2023-01-19T00:59:21;-2.70;99.90
34099;DHT22;20374;49.474;10.944;2023-01-19T01:01:47;-2.60;99.90
34099;DHT22;20374;49.474;10.944;2023-01-19T01:04:13;-2.60;99.90
34099;DHT22;20374;49.474;10.944;2023-01-19T01:06:39;-2.60;99.90
34099;DHT22;20374;49.474;10.944;2023-01-19T01:09:05;-2.60;99.90
34099;DHT22;20374;49.474;10.944;2023-01-19T01:11:41;-2.60;99.90
34099;DHT22;20374;49.474;10.944;2023-01-19T01:14:11;-2.60;99.90
34099;DHT22;20374;49.474;10.944;2023-01-19T01:16:37;-2.60;99.90
34099;DHT22;20374;49.474;10.944;2023-01-19T01:19:02;-2.70;99.90
34099;DHT22;20374;49.474;10.944;2023-01-19T01:21:28;-2.70;99.90
34099;DHT22;20374;49.474;10.944;2023-01-19T01:23:54;-2.70;99.90
34099;DHT22;20374;49.474;10.944;2023-01-19T01:26:21;-2.80;99.90
34099;DHT22;20374;49.474;10.944;2023-01-19T01:28:46;-2.80;99.90
34099;DHT22;20374;49.474;10.944;2023-01-19T01:31:13;-3.00;99.90
34099;DHT22;20374;49.474;10.944;2023-01-19T01:33:38;-2.90;99.90
34099;DHT22;20374;49.474;10.944;2023-01-19T01:36:05;-2.90;99.90
34099;DHT22;20374;49.474;10.944;2023-01-19T01:38:31;-3.00;99.90
34099;DHT22;20374;49.474;10.944;2023-01-19T01:40:57;-3.00;99.90
34099;DHT22;20374;49.474;10.944;2023-01-19T01:43:39;-3.00;99.90
34099;DHT22;20374;49.474;10.944;2023-01-19T01:46:06;-3.00;99.90
34099;DHT22;20374;49.474;10.944;2023-01-19T01:48:35;-3.00;99.90
34099;DHT22;20374;49.474;10.944;2023-01-19T01:51:03;-3.10;99.90
34099;DHT22;20374;49.474;10.944;2023-01-19T01:56:47;-3.20;99.90
34099;DHT22;20374;49.474;10.944;2023-01-19T01:59:35;-3.30;99.90
34099;DHT22;20374;49.474;10.944;2023-01-19T02:02:11;-3.40;99.90
34099;DHT22;20374;49.474;10.944;2023-01-19T02:05:01;-3.40;99.90
34099;DHT22;20374;49.474;10.944;2023-01-19T02:07:58;-3.50;99.90
34099;DHT22;20374;49.474;10.944;2023-01-19T02:10:44;-3.40;99.90
34099;DHT22;20374;49.474;10.944;2023-01-19T02:13:30;-3.30;99.90
34099;DHT22;20374;49.474;10.944;2023-01-19T02:16:00;-3.30;99.90
34099;DHT22;20374;49.474;10.944;2023-01-19T02:18:29;-3.30;99.90
34099;DHT22;20374;49.474;10.944;2023-01-19T02:21:21;-3.30;99.90
34099;DHT22;20374;49.474;10.944;2023-01-19T02:23:55;-3.40;99.90
34099;DHT22;20374;49.474;10.944;2023-01-19T02:29:03;-3.40;99.90
34099;DHT22;20374;49.474;10.944;2023-01-19T02:31:30;-3.40;99.90
34099;DHT22;20374;49.474;10.944;2023-01-19T02:33:59;-3.40;99.90
34099;DHT22;20374;49.474;10.944;2023-01-19T02:36:49;-3.40;99.90
34099;DHT22;20374;49.474;10.944;2023-01-19T02:39:15;-3.50;99.90
34099;DHT22;20374;49.474;10.944;2023-01-19T02:41:48;-3.60;99.90
34099;DHT22;20374;49.474;10.944;2023-01-19T02:44:16;-3.70;99.90
34099;DHT22;20374;49.474;10.944;2023-01-19T02:46:43;-3.70;99.90
34099;DHT22;20374;49.474;10.944;2023-01-19T02:49:09;-3.70;99.90
34099;DHT22;20374;49.474;10.944;2023-01-19T02:51:35;-3.70;99.90
34099;DHT22;20374;49.474;10.944;2023-01-19T02:54:07;-3.70;99.90
34099;DHT22;20374;49.474;10.944;2023-01-19T02:56:54;-3.70;99.90
34099;DHT22;20374;49.474;10.944;2023-01-19T03:10:52;-3.80;99.90
34099;DHT22;20374;49.474;10.944;2023-01-19T03:13:45;-3.80;99.90
34099;DHT22;20374;49.474;10.944;2023-01-19T03:16:22;-3.80;99.90
34099;DHT22;20374;49.474;10.944;2023-01-19T03:18:56;-3.80;99.90
34099;DHT22;20374;49.474;10.944;2023-01-19T03:21:26;-3.80;99.90
34099;DHT22;20374;49.474;10.944;2023-01-19T03:23:56;-3.90;99.90
34099;DHT22;20374;49.474;10.944;2023-01-19T03:26:26;-3.90;99.90
34099;DHT22;20374;49.474;10.944;2023-01-19T03:28:55;-3.90;99.90
34099;DHT22;20374;49.474;10.944;2023-01-19T03:31:25;-4.00;99.90
34099;DHT22;20374;49.474;10.944;2023-01-19T03:33:56;-4.00;99.90
34099;DHT22;20374;49.474;10.944;2023-01-19T03:36:36;-4.00;99.90
34099;DHT22;20374;49.474;10.944;2023-01-19T03:39:03;-4.00;99.90
34099;DHT22;20374;49.474;10.944;2023-01-19T03:41:31;-4.00;99.90
34099;DHT22;20374;49.474;10.944;2023-01-19T03:43:59;-4.10;99.90
34099;DHT22;20374;49.474;10.944;2023-01-19T03:46:26;-4.10;99.90
34099;DHT22;20374;49.474;10.944;2023-01-19T03:48:52;-4.10;99.90
34099;DHT22;20374;49.474;10.944;2023-01-19T03:51:20;-4.20;99.90
34099;DHT22;20374;49.474;10.944;2023-01-19T03:53:46;-4.10;99.90
34099;DHT22;20374;49.474;10.944;2023-01-19T03:56:22;-4.20;99.90
34099;DHT22;20374;49.474;10.944;2023-01-19T03:58:49;-4.10;99.90
34099;DHT22;20374;49.474;10.944;2023-01-19T04:01:16;-4.20;99.90
34099;DHT22;20374;49.474;10.944;2023-01-19T04:03:42;-4.20;99.90
34099;DHT22;20374;49.474;10.944;2023-01-19T04:06:09;-4.20;99.90
34099;DHT22;20374;49.474;10.944;2023-01-19T04:08:35;-4.20;99.90
34099;DHT22;20374;49.474;10.944;2023-01-19T04:11:02;-4.20;99.90
34099;DHT22;20374;49.474;10.944;2023-01-19T04:13:28;-4.20;99.90
34099;DHT22;20374;49.474;10.944;2023-01-19T04:16:02;-4.30;99.90
34099;DHT22;20374;49.474;10.944;2023-01-19T04:18:29;-4.30;99.90
34099;DHT22;20374;49.474;10.944;2023-01-19T04:21:03;-4.30;99.90
34099;DHT22;20374;49.474;10.944;2023-01-19T04:23:30;-4.30;99.90
34099;DHT22;20374;49.474;10.944;2023-01-19T04:25:57;-4.40;99.90
34099;DHT22;20374;49.474;10.944;2023-01-19T04:28:24;-4.40;99.90
34099;DHT22;20374;49.474;10.944;2023-01-19T04:30:53;-4.30;99.90
34099;DHT22;20374;49.474;10.944;2023-01-19T04:33:20;-4.40;99.90
34099;DHT22;20374;49.474;10.944;2023-01-19T04:35:47;-4.20;99.90
34099;DHT22;20374;49.474;10.944;2023-01-19T04:38:13;-4.20;99.90
34099;DHT22;20374;49.474;10.944;2023-01-19T04:40:40;-4.20;99.90
34099;DHT22;20374;49.474;10.944;2023-01-19T04:43:06;-4.20;99.90
34099;DHT22;20374;49.474;10.944;2023-01-19T04:45:33;-4.20;99.90
34099;DHT22;20374;49.474;10.944;2023-01-19T04:47:59;-4.20;99.90
34099;DHT22;20374;49.474;10.944;2023-01-19T04:50:25;-4.20;99.90
34099;DHT22;20374;49.474;10.944;2023-01-19T04:52:51;-4.20;99.90
34099;DHT22;20374;49.474;10.944;2023-01-19T04:55:20;-4.10;99.90
34099;DHT22;20374;49.474;10.944;2023-01-19T04:57:46;-4.10;99.90
34099;DHT22;20374;49.474;10.944;2023-01-19T05:00:12;-4.00;99.90
34099;DHT22;20374;49.474;10.944;2023-01-19T05:02:39;-4.00;99.90
34099;DHT22;20374;49.474;10.944;2023-01-19T05:05:07;-4.00;99.90
34099;DHT22;20374;49.474;10.944;2023-01-19T05:07:33;-4.10;99.90
34099;DHT22;20374;49.474;10.944;2023-01-19T05:10:01;-4.00;99.90
34099;DHT22;20374;49.474;10.944;2023-01-19T05:12:27;-4.00;99.90
34099;DHT22;20374;49.474;10.944;2023-01-19T05:14:53;-4.20;99.90
34099;DHT22;20374;49.474;10.944;2023-01-19T05:17:19;-4.10;99.90
34099;DHT22;20374;49.474;10.944;2023-01-19T05:19:45;-4.00;99.90
34099;DHT22;20374;49.474;10.944;2023-01-19T05:22:12;-4.00;99.90
34099;DHT22;20374;49.474;10.944;2023-01-19T05:24:38;-4.00;99.90
34099;DHT22;20374;49.474;10.944;2023-01-19T05:27:04;-4.00;99.90
34099;DHT22;20374;49.474;10.944;2023-01-19T05:29:30;-4.00;99.90
34099;DHT22;20374;49.474;10.944;2023-01-19T05:31:56;-4.00;99.90
34099;DHT22;20374;49.474;10.944;2023-01-19T05:34:22;-4.00;99.90
34099;DHT22;20374;49.474;10.944;2023-01-19T05:36:49;-4.00;99.90
34099;DHT22;20374;49.474;10.944;2023-01-19T05:39:16;-4.00;99.90
34099;DHT22;20374;49.474;10.944;2023-01-19T05:41:42;-3.90;99.90
34099;DHT22;20374;49.474;10.944;2023-01-19T05:44:10;-3.90;99.90
34099;DHT22;20374;49.474;10.944;2023-01-19T05:46:38;-3.90;99.90
34099;DHT22;20374;49.474;10.944;2023-01-19T05:49:04;-3.90;99.90
34099;DHT22;20374;49.474;10.944;2023-01-19T05:51:33;-3.90;99.90
34099;DHT22;20374;49.474;10.944;2023-01-19T05:54:12;-3.90;99.90
34099;DHT22;20374;49.474;10.944;2023-01-19T05:56:38;-4.00;99.90
34099;DHT22;20374;49.474;10.944;2023-01-19T05:59:05;-4.00;99.90
34099;DHT22;20374;49.474;10.944;2023-01-19T06:01:31;-4.10;99.90
34099;DHT22;20374;49.474;10.944;2023-01-19T06:03:59;-4.10;99.90
34099;DHT22;20374;49.474;10.944;2023-01-19T06:06:25;-4.10;99.90
34099;DHT22;20374;49.474;10.944;2023-01-19T06:08:51;-4.30;99.90
34099;DHT22;20374;49.474;10.944;2023-01-19T06:11:20;-4.30;99.90
34099;DHT22;20374;49.474;10.944;2023-01-19T06:13:47;-4.30;99.90
34099;DHT22;20374;49.474;10.944;2023-01-19T06:16:13;-4.40;99.90
34099;DHT22;20374;49.474;10.944;2023-01-19T06:18:39;-4.20;99.90
34099;DHT22;20374;49.474;10.944;2023-01-19T06:21:08;-4.10;99.90
34099;DHT22;20374;49.474;10.944;2023-01-19T06:23:36;-4.10;99.90
34099;DHT22;20374;49.474;10.944;2023-01-19T06:26:03;-4.00;99.90
34099;DHT22;20374;49.474;10.944;2023-01-19T06:28:29;-3.90;99.90
34099;DHT22;20374;49.474;10.944;2023-01-19T06:30:55;-3.90;99.90
34099;DHT22;20374;49.474;10.944;2023-01-19T06:33:22;-3.80;99.90
34099;DHT22;20374;49.474;10.944;2023-01-19T06:35:49;-3.80;99.90
34099;DHT22;20374;49.474;10.944;2023-01-19T06:38:15;-3.80;99.90
34099;DHT22;20374;49.474;10.944;2023-01-19T06:40:44;-3.80;99.90
34099;DHT22;20374;49.474;10.944;2023-01-19T06:43:10;-3.80;99.90
34099;DHT22;20374;49.474;10.944;2023-01-19T06:48:18;-3.70;99.90
34099;DHT22;20374;49.474;10.944;2023-01-19T06:50:45;-3.60;99.90
34099;DHT22;20374;49.474;10.944;2023-01-19T06:53:11;-3.60;99.90
34099;DHT22;20374;49.474;10.944;2023-01-19T06:55:37;-3.60;99.90
34099;DHT22;20374;49.474;10.944;2023-01-19T06:58:04;-3.60;99.90
34099;DHT22;20374;49.474;10.944;2023-01-19T07:00:30;-3.50;99.90
34099;DHT22;20374;49.474;10.944;2023-01-19T07:02:56;-3.50;99.90
34099;DHT22;20374;49.474;10.944;2023-01-19T07:05:23;-3.60;99.90
34099;DHT22;20374;49.474;10.944;2023-01-19T07:07:55;-3.60;99.90
34099;DHT22;20374;49.474;10.944;2023-01-19T07:10:22;-3.60;99.90
34099;DHT22;20374;49.474;10.944;2023-01-19T07:12:49;-3.70;99.90
34099;DHT22;20374;49.474;10.944;2023-01-19T07:15:17;-3.70;99.90
34099;DHT22;20374;49.474;10.944;2023-01-19T07:17:47;-3.80;99.90
34099;DHT22;20374;49.474;10.944;2023-01-19T07:20:13;-3.90;99.90
34099;DHT22;20374;49.474;10.944;2023-01-19T07:22:41;-3.90;99.90
34099;DHT22;20374;49.474;10.944;2023-01-19T07:25:08;-3.90;99.90
34099;DHT22;20374;49.474;10.944;2023-01-19T07:27:34;-3.90;99.90
34099;DHT22;20374;49.474;10.944;2023-01-19T07:30:01;-3.80;99.90
34099;DHT22;20374;49.474;10.944;2023-01-19T07:32:29;-3.70;99.90
34099;DHT22;20374;49.474;10.944;2023-01-19T07:34:55;-3.60;99.90
34099;DHT22;20374;49.474;10.944;2023-01-19T07:37:21;-3.60;99.90
34099;DHT22;20374;49.474;10.944;2023-01-19T07:39:47;-3.50;99.90
34099;DHT22;20374;49.474;10.944;2023-01-19T07:42:14;-3.50;99.90
34099;DHT22;20374;49.474;10.944;2023-01-19T07:44:40;-3.40;99.90
34099;DHT22;20374;49.474;10.944;2023-01-19T07:47:08;-3.40;99.90
34099;DHT22;20374;49.474;10.944;2023-01-19T07:49:37;-3.40;99.90
34099;DHT22;20374;49.474;10.944;2023-01-19T07:52:04;-3.30;99.90
34099;DHT22;20374;49.474;10.944;2023-01-19T07:54:30;-3.30;99.90
34099;DHT22;20374;49.474;10.944;2023-01-19T07:56:56;-3.10;99.90
34099;DHT22;20374;49.474;10.944;2023-01-19T07:59:22;-2.90;99.90
34099;DHT22;20374;49.474;10.944;2023-01-19T08:01:48;-2.70;99.90
34099;DHT22;20374;49.474;10.944;2023-01-19T08:04:14;-2.70;99.90
34099;DHT22;20374;49.474;10.944;2023-01-19T08:06:42;-2.50;99.90
34099;DHT22;20374;49.474;10.944;2023-01-19T08:09:09;-2.30;99.90
34099;DHT22;20374;49.474;10.944;2023-01-19T08:11:36;-1.90;99.90
34099;DHT22;20374;49.474;10.944;2023-01-19T08:14:03;-1.50;99.90
34099;DHT22;20374;49.474;10.944;2023-01-19T08:16:29;-1.20;99.90
34099;DHT22;20374;49.474;10.944;2023-01-19T08:18:55;-1.00;99.90
34099;DHT22;20374;49.474;10.944;2023-01-19T08:21:21;-1.00;99.90
34099;DHT22;20374;49.474;10.944;2023-01-19T08:23:54;-1.20;99.90
34099;DHT22;20374;49.474;10.944;2023-01-19T08:26:26;-1.50;99.90
34099;DHT22;20374;49.474;10.944;2023-01-19T08:28:53;-1.70;99.90
34099;DHT22;20374;49.474;10.944;2023-01-19T08:31:20;-1.90;99.90
34099;DHT22;20374;49.474;10.944;2023-01-19T08:33:45;-2.00;99.90
34099;DHT22;20374;49.474;10.944;2023-01-19T08:36:11;-2.00;99.90
34099;DHT22;20374;49.474;10.944;2023-01-19T08:38:37;-2.00;99.90
34099;DHT22;20374;49.474;10.944;2023-01-19T08:41:06;-2.00;99.90
34099;DHT22;20374;49.474;10.944;2023-01-19T08:43:32;-2.00;99.90
34099;DHT22;20374;49.474;10.944;2023-01-19T08:45:57;-2.00;99.90
34099;DHT22;20374;49.474;10.944;2023-01-19T08:48:23;-1.90;99.90
34099;DHT22;20374;49.474;10.944;2023-01-19T08:50:50;-1.90;99.90
34099;DHT22;20374;49.474;10.944;2023-01-19T08:53:16;-1.90;99.90
34099;DHT22;20374;49.474;10.944;2023-01-19T08:55:43;-1.90;99.90
34099;DHT22;20374;49.474;10.944;2023-01-19T08:58:09;-1.90;99.90
34099;DHT22;20374;49.474;10.944;2023-01-19T09:00:37;-1.80;99.90
34099;DHT22;20374;49.474;10.944;2023-01-19T09:03:05;-1.80;99.90
34099;DHT22;20374;49.474;10.944;2023-01-19T09:05:33;-1.80;99.90
34099;DHT22;20374;49.474;10.944;2023-01-19T09:08:04;-1.70;99.90
34099;DHT22;20374;49.474;10.944;2023-01-19T09:10:31;-1.70;99.90
34099;DHT22;20374;49.474;10.944;2023-01-19T09:13:09;-1.80;99.90
34099;DHT22;20374;49.474;10.944;2023-01-19T09:15:37;-1.60;99.90
34099;DHT22;20374;49.474;10.944;2023-01-19T09:18:05;-1.50;99.90
34099;DHT22;20374;49.474;10.944;2023-01-19T09:20:31;-1.50;99.90
34099;DHT22;20374;49.474;10.944;2023-01-19T09:22:59;-1.30;99.90
34099;DHT22;20374;49.474;10.944;2023-01-19T09:25:26;-1.10;99.90
34099;DHT22;20374;49.474;10.944;2023-01-19T09:27:52;-1.00;99.90
34099;DHT22;20374;49.474;10.944;2023-01-19T09:30:18;-0.80;99.90
34099;DHT22;20374;49.474;10.944;2023-01-19T09:32:44;-0.50;99.90
34099;DHT22;20374;49.474;10.944;2023-01-19T09:35:11;-0.50;99.90
34099;DHT22;20374;49.474;10.944;2023-01-19T09:37:37;-0.60;99.90
34099;DHT22;20374;49.474;10.944;2023-01-19T09:40:07;-0.70;99.90
34099;DHT22;20374;49.474;10.944;2023-01-19T09:45:14;-0.60;99.90
34099;DHT22;20374;49.474;10.944;2023-01-19T09:47:42;-0.40;99.90
34099;DHT22;20374;49.474;10.944;2023-01-19T09:50:33;-0.20;99.90
34099;DHT22;20374;49.474;10.944;2023-01-19T09:53:19;0.20;99.90
34099;DHT22;20374;49.474;10.944;2023-01-19T09:55:46;0.30;99.90
34099;DHT22;20374;49.474;10.944;2023-01-19T09:58:14;0.20;99.90
34099;DHT22;20374;49.474;10.944;2023-01-19T10:00:51;0.20;99.90
34099;DHT22;20374;49.474;10.944;2023-01-19T10:03:17;0.10;99.90
34099;DHT22;20374;49.474;10.944;2023-01-19T10:06:01;-0.10;99.90
34099;DHT22;20374;49.474;10.944;2023-01-19T10:11:26;-0.10;99.90
34099;DHT22;20374;49.474;10.944;2023-01-19T10:13:53;-0.10;99.90
34099;DHT22;20374;49.474;10.944;2023-01-19T10:16:44;0.10;99.90
34099;DHT22;20374;49.474;10.944;2023-01-19T10:19:26;0.10;99.90
34099;DHT22;20374;49.474;10.944;2023-01-19T10:21:56;0.20;99.90
34099;DHT22;20374;49.474;10.944;2023-01-19T10:24:37;0.30;99.90
34099;DHT22;20374;49.474;10.944;2023-01-19T10:27:14;0.30;99.90
34099;DHT22;20374;49.474;10.944;2023-01-19T10:29:43;0.30;99.90
34099;DHT22;20374;49.474;10.944;2023-01-19T10:32:30;0.40;99.90
34099;DHT22;20374;49.474;10.944;2023-01-19T10:34:57;0.40;99.90
34099;DHT22;20374;49.474;10.944;2023-01-19T10:37:30;0.40;99.90
34099;DHT22;20374;49.474;10.944;2023-01-19T10:42:37;0.50;99.90
34099;DHT22;20374;49.474;10.944;2023-01-19T10:45:18;0.60;99.90
34099;DHT22;20374;49.474;10.944;2023-01-19T10:47:46;0.50;99.90
34099;DHT22;20374;49.474;10.944;2023-01-19T10:50:32;0.50;99.90
34099;DHT22;20374;49.474;10.944;2023-01-19T10:53:00;0.40;99.90
34099;DHT22;20374;49.474;10.944;2023-01-19T10:55:34;0.40;99.90
34099;DHT22;20374;49.474;10.944;2023-01-19T10:58:03;0.40;99.90
34099;DHT22;20374;49.474;10.944;2023-01-19T11:03:03;0.50;99.90
34099;DHT22;20374;49.474;10.944;2023-01-19T11:05:32;0.60;99.90
34099;DHT22;20374;49.474;10.944;2023-01-19T11:07:58;0.80;99.90
34099;DHT22;20374;49.474;10.944;2023-01-19T11:10:27;1.00;99.90
34099;DHT22;20374;49.474;10.944;2023-01-19T11:20:50;1.50;99.90
34099;DHT22;20374;49.474;10.944;2023-01-19T11:26:00;1.20;99.90
34099;DHT22;20374;49.474;10.944;2023-01-19T11:30:58;1.10;99.90
34099;DHT22;20374;49.474;10.944;2023-01-19T11:33:33;1.10;99.90
34099;DHT22;20374;49.474;10.944;2023-01-19T11:36:06;1.20;99.90
34099;DHT22;20374;49.474;10.944;2023-01-19T11:38:40;1.20;99.90
34099;DHT22;20374;49.474;10.944;2023-01-19T11:41:17;1.20;99.90
34099;DHT22;20374;49.474;10.944;2023-01-19T11:43:43;1.20;99.90
34099;DHT22;20374;49.474;10.944;2023-01-19T11:46:12;1.10;99.90
34099;DHT22;20374;49.474;10.944;2023-01-19T11:48:44;1.10;99.90
34099;DHT22;20374;49.474;10.944;2023-01-19T11:51:14;1.20;99.90
34099;DHT22;20374;49.474;10.944;2023-01-19T11:53:43;1.30;99.90
34099;DHT22;20374;49.474;10.944;2023-01-19T11:56:13;1.40;99.90
34099;DHT22;20374;49.474;10.944;2023-01-19T11:58:42;1.50;99.90
34099;DHT22;20374;49.474;10.944;2023-01-19T12:01:28;1.50;99.90
34099;DHT22;20374;49.474;10.944;2023-01-19T12:06:48;1.60;99.90
34099;DHT22;20374;49.474;10.944;2023-01-19T12:09:22;1.60;99.90
34099;DHT22;20374;49.474;10.944;2023-01-19T12:12:06;1.60;99.90
34099;DHT22;20374;49.474;10.944;2023-01-19T12:17:44;1.40;99.90
34099;DHT22;20374;49.474;10.944;2023-01-19T12:20:37;1.30;99.90
34099;DHT22;20374;49.474;10.944;2023-01-19T12:23:19;1.20;99.90
34099;DHT22;20374;49.474;10.944;2023-01-19T12:26:18;1.20;99.90
34099;DHT22;20374;49.474;10.944;2023-01-19T12:28:49;1.10;99.90
34099;DHT22;20374;49.474;10.944;2023-01-19T12:31:17;1.10;99.90
34099;DHT22;20374;49.474;10.944;2023-01-19T12:33:45;1.00;99.90
34099;DHT22;20374;49.474;10.944;2023-01-19T12:39:21;1.00;99.90
34099;DHT22;20374;49.474;10.944;2023-01-19T12:42:20;0.90;99.90
34099;DHT22;20374;49.474;10.944;2023-01-19T12:44:47;1.00;99.90
34099;DHT22;20374;49.474;10.944;2023-01-19T12:49:48;1.90;99.90
34099;DHT22;20374;49.474;10.944;2023-01-19T13:00:35;3.70;99.90
34099;DHT22;20374;49.474;10.944;2023-01-19T13:05:53;2.70;99.90
34099;DHT22;20374;49.474;10.944;2023-01-19T13:11:19;2.00;99.90
34099;DHT22;20374;49.474;10.944;2023-01-19T13:21:10;1.50;99.90
34099;DHT22;20374;49.474;10.944;2023-01-19T13:26:15;1.40;99.90
34099;DHT22;20374;49.474;10.944;2023-01-19T13:28:44;1.30;99.90
34099;DHT22;20374;49.474;10.944;2023-01-19T13:31:11;1.20;99.90
34099;DHT22;20374;49.474;10.944;2023-01-19T13:33:54;1.20;99.90
34099;DHT22;20374;49.474;10.944;2023-01-19T13:38:54;1.20;99.90
34099;DHT22;20374;49.474;10.944;2023-01-19T13:41:23;1.20;99.90
34099;DHT22;20374;49.474;10.944;2023-01-19T13:44:02;1.40;99.90
34099;DHT22;20374;49.474;10.944;2023-01-19T13:46:30;1.40;99.90
34099;DHT22;20374;49.474;10.944;2023-01-19T13:49:03;1.50;99.90
34099;DHT22;20374;49.474;10.944;2023-01-19T13:51:29;1.50;99.90
34099;DHT22;20374;49.474;10.944;2023-01-19T13:53:57;1.60;99.90
34099;DHT22;20374;49.474;10.944;2023-01-19T13:56:25;1.60;99.90
34099;DHT22;20374;49.474;10.944;2023-01-19T13:59:11;1.60;99.90
34099;DHT22;20374;49.474;10.944;2023-01-19T14:01:40;1.70;99.90
34099;DHT22;20374;49.474;10.944;2023-01-19T14:06:52;1.50;99.90
34099;DHT22;20374;49.474;10.944;2023-01-19T14:09:20;1.50;99.90
34099;DHT22;20374;49.474;10.944;2023-01-19T14:12:12;1.40;99.90
34099;DHT22;20374;49.474;10.944;2023-01-19T14:14:39;1.40;99.90
34099;DHT22;20374;49.474;10.944;2023-01-19T14:17:22;1.30;99.90
34099;DHT22;20374;49.474;10.944;2023-01-19T14:19:50;1.30;99.90
34099;DHT22;20374;49.474;10.944;2023-01-19T14:22:16;1.20;99.90
34099;DHT22;20374;49.474;10.944;2023-01-19T14:24:42;1.20;99.90
34099;DHT22;20374;49.474;10.944;2023-01-19T14:29:43;1.20;99.90
34099;DHT22;20374;49.474;10.944;2023-01-19T14:32:13;1.20;99.90
34099;DHT22;20374;49.474;10.944;2023-01-19T14:34:45;1.30;99.90
34099;DHT22;20374;49.474;10.944;2023-01-19T14:37:25;1.30;99.90
34099;DHT22;20374;49.474;10.944;2023-01-19T14:42:29;1.30;99.90
34099;DHT22;20374;49.474;10.944;2023-01-19T14:45:03;1.30;99.90
34099;DHT22;20374;49.474;10.944;2023-01-19T14:47:37;1.20;99.90
34099;DHT22;20374;49.474;10.944;2023-01-19T14:53:03;1.10;99.90
34099;DHT22;20374;49.474;10.944;2023-01-19T14:55:53;1.00;99.90
34099;DHT22;20374;49.474;10.944;2023-01-19T14:58:24;1.00;99.90
34099;DHT22;20374;49.474;10.944;2023-01-19T15:00:50;0.90;99.90
34099;DHT22;20374;49.474;10.944;2023-01-19T15:03:21;0.80;99.90
34099;DHT22;20374;49.474;10.944;2023-01-19T15:05:48;0.90;99.90
34099;DHT22;20374;49.474;10.944;2023-01-19T15:08:22;0.90;99.90
34099;DHT22;20374;49.474;10.944;2023-01-19T15:10:49;0.80;99.90
34099;DHT22;20374;49.474;10.944;2023-01-19T15:13:20;0.80;99.90
34099;DHT22;20374;49.474;10.944;2023-01-19T15:15:47;0.70;99.90
34099;DHT22;20374;49.474;10.944;2023-01-19T15:18:16;0.60;99.90
34099;DHT22;20374;49.474;10.944;2023-01-19T15:20:44;0.60;99.90
34099;DHT22;20374;49.474;10.944;2023-01-19T15:23:11;0.60;99.90
34099;DHT22;20374;49.474;10.944;2023-01-19T15:25:37;0.60;99.90
34099;DHT22;20374;49.474;10.944;2023-01-19T15:28:15;0.50;99.90
34099;DHT22;20374;49.474;10.944;2023-01-19T15:30:42;0.50;99.90
34099;DHT22;20374;49.474;10.944;2023-01-19T15:33:18;0.40;99.90
34099;DHT22;20374;49.474;10.944;2023-01-19T15:35:44;0.40;99.90
34099;DHT22;20374;49.474;10.944;2023-01-19T15:38:10;0.30;99.90
34099;DHT22;20374;49.474;10.944;2023-01-19T15:40:36;0.30;99.90
34099;DHT22;20374;49.474;10.944;2023-01-19T15:43:02;0.20;99.90
34099;DHT22;20374;49.474;10.944;2023-01-19T15:45:37;0.20;99.90
34099;DHT22;20374;49.474;10.944;2023-01-19T15:48:05;0.30;99.90
34099;DHT22;20374;49.474;10.944;2023-01-19T15:50:33;0.20;99.90
34099;DHT22;20374;49.474;10.944;2023-01-19T15:53:00;0.20;99.90
34099;DHT22;20374;49.474;10.944;2023-01-19T15:55:26;0.10;99.90
34099;DHT22;20374;49.474;10.944;2023-01-19T15:57:52;0.10;99.90
34099;DHT22;20374;49.474;10.944;2023-01-19T16:00:19;0.00;99.90
34099;DHT22;20374;49.474;10.944;2023-01-19T16:02:45;-0.10;99.90
34099;DHT22;20374;49.474;10.944;2023-01-19T16:05:11;-0.10;99.90
34099;DHT22;20374;49.474;10.944;2023-01-19T16:07:37;-0.30;99.90
34099;DHT22;20374;49.474;10.944;2023-01-19T16:10:03;-0.20;99.90
34099;DHT22;20374;49.474;10.944;2023-01-19T16:12:34;-0.30;99.90
34099;DHT22;20374;49.474;10.944;2023-01-19T16:15:00;-0.30;99.90
34099;DHT22;20374;49.474;10.944;2023-01-19T16:17:26;-0.20;99.90
34099;DHT22;20374;49.474;10.944;2023-01-19T16:19:52;-0.30;99.90
34099;DHT22;20374;49.474;10.944;2023-01-19T16:22:18;-0.30;99.90
34099;DHT22;20374;49.474;10.944;2023-01-19T16:24:44;-0.40;99.90
34099;DHT22;20374;49.474;10.944;2023-01-19T16:27:10;-0.50;99.90
34099;DHT22;20374;49.474;10.944;2023-01-19T16:29:36;-0.50;99.90
34099;DHT22;20374;49.474;10.944;2023-01-19T16:32:02;-0.60;99.90
34099;DHT22;20374;49.474;10.944;2023-01-19T16:34:28;-0.50;99.90
34099;DHT22;20374;49.474;10.944;2023-01-19T16:36:54;-0.50;99.90
34099;DHT22;20374;49.474;10.944;2023-01-19T16:39:20;-0.50;99.90
34099;DHT22;20374;49.474;10.944;2023-01-19T16:41:46;-0.40;99.90
34099;DHT22;20374;49.474;10.944;2023-01-19T16:44:14;-0.50;99.90
34099;DHT22;20374;49.474;10.944;2023-01-19T16:46:42;-0.40;99.90
34099;DHT22;20374;49.474;10.944;2023-01-19T16:49:14;-0.40;99.90
34099;DHT22;20374;49.474;10.944;2023-01-19T16:51:41;-0.40;99.90
34099;DHT22;20374;49.474;10.944;2023-01-19T16:54:09;-0.40;99.90
34099;DHT22;20374;49.474;10.944;2023-01-19T16:56:36;-0.40;99.90
34099;DHT22;20374;49.474;10.944;2023-01-19T16:59:03;-0.40;99.90
34099;DHT22;20374;49.474;10.944;2023-01-19T17:01:29;-0.30;99.90
34099;DHT22;20374;49.474;10.944;2023-01-19T17:03:55;-0.30;99.90
34099;DHT22;20374;49.474;10.944;2023-01-19T17:06:22;-0.20;99.90